AFR31PQ LPPT-LFPG
Flight info
| Callsign | AFR31PQ |
|---|---|
| Flight time | 1h 57m |
| Altitude | 38000 |
| Route | IXIDA DCT RIVRO DCT TOSDI DCT ZMR DCT NUBLO DCT RONSI DCT DELOG DCT YURZI DCT NTS UN741 ANG/N0398F300 UN741 KEPER |
| Aircraft | A20N/M-SDE2E3FGHIRWXY/LB1 |
Departure
| Time | 2026-05-05 14:38 |
|---|---|
| Airport | Lisbon Humberto Delgado Airport (LPPT) |
Arrival
| Time | 2026-05-05 16:36 |
|---|---|
| Airport | Charles de Gaulle International Airport (LFPG) |
| Time | Latitude | Longitude | Altitude | Speed | Heading |
|---|---|---|---|---|---|
| 2026-05-05 14:12 | 38.77113 | -9.13122 | 347 ft | 0 kts | 81° |
| 2026-05-05 14:28 | 38.77112 | -9.13128 | 347 ft | 4 kts | 79° |
| 2026-05-05 14:28 | 38.77107 | -9.13160 | 349 ft | 4 kts | 67° |
| 2026-05-05 14:28 | 38.77093 | -9.13187 | 350 ft | 4 kts | 27° |
| 2026-05-05 14:29 | 38.77077 | -9.13192 | 354 ft | 0 kts | 349° |
| 2026-05-05 14:32 | 38.77082 | -9.13193 | 354 ft | 2 kts | 348° |
| 2026-05-05 14:32 | 38.77102 | -9.13199 | 352 ft | 4 kts | 348° |
| 2026-05-05 14:32 | 38.77139 | -9.13209 | 347 ft | 6 kts | 347° |
| 2026-05-05 14:33 | 38.77186 | -9.13222 | 350 ft | 8 kts | 348° |
| 2026-05-05 14:33 | 38.77244 | -9.13238 | 349 ft | 9 kts | 348° |
| 2026-05-05 14:33 | 38.77312 | -9.13265 | 352 ft | 10 kts | 322° |
| 2026-05-05 14:33 | 38.77320 | -9.13348 | 350 ft | 11 kts | 257° |
| 2026-05-05 14:34 | 38.77304 | -9.13448 | 352 ft | 12 kts | 259° |
| 2026-05-05 14:34 | 38.77286 | -9.13565 | 348 ft | 14 kts | 260° |
| 2026-05-05 14:34 | 38.77264 | -9.13695 | 348 ft | 16 kts | 258° |
| 2026-05-05 14:34 | 38.77234 | -9.13833 | 355 ft | 15 kts | 226° |
| 2026-05-05 14:35 | 38.77134 | -9.13898 | 349 ft | 17 kts | 204° |
| 2026-05-05 14:35 | 38.77015 | -9.13961 | 353 ft | 20 kts | 201° |
| 2026-05-05 14:35 | 38.76883 | -9.14030 | 347 ft | 22 kts | 202° |
| 2026-05-05 14:35 | 38.76750 | -9.14101 | 352 ft | 18 kts | 204° |
| 2026-05-05 14:36 | 38.76639 | -9.14161 | 348 ft | 16 kts | 201° |
| 2026-05-05 14:36 | 38.76601 | -9.14259 | 348 ft | 0 kts | 288° |
| 2026-05-05 14:36 | 38.76603 | -9.14266 | 346 ft | 3 kts | 287° |
| 2026-05-05 14:36 | 38.76620 | -9.14324 | 338 ft | 11 kts | 295° |
| 2026-05-05 14:37 | 38.76686 | -9.14367 | 338 ft | 11 kts | 14° |
| 2026-05-05 14:37 | 38.76771 | -9.14325 | 339 ft | 25 kts | 22° |
| 2026-05-05 14:37 | 38.77154 | -9.14124 | 348 ft | 91 kts | 22° |
| 2026-05-05 14:37 | 38.77905 | -9.13715 | 349 ft | 141 kts | 22° |
| 2026-05-05 14:38 | 38.78907 | -9.13153 | 561 ft | 161 kts | 20° |
| 2026-05-05 14:38 | 38.79891 | -9.12539 | 1275 ft | 155 kts | 19° |
| 2026-05-05 14:38 | 38.80883 | -9.11934 | 1863 ft | 155 kts | 18° |
| 2026-05-05 14:38 | 38.81853 | -9.11328 | 2381 ft | 162 kts | 20° |
| 2026-05-05 14:39 | 38.82890 | -9.10573 | 2703 ft | 187 kts | 33° |
| 2026-05-05 14:39 | 38.83930 | -9.09390 | 3043 ft | 214 kts | 38° |
| 2026-05-05 14:39 | 38.85038 | -9.07988 | 3542 ft | 236 kts | 41° |
| 2026-05-05 14:39 | 38.86249 | -9.06432 | 4150 ft | 255 kts | 41° |
| 2026-05-05 14:40 | 38.87549 | -9.04834 | 4988 ft | 260 kts | 37° |
| 2026-05-05 14:40 | 38.88903 | -9.03277 | 5917 ft | 264 kts | 39° |
| 2026-05-05 14:40 | 38.90215 | -9.01650 | 6874 ft | 265 kts | 41° |
| 2026-05-05 14:40 | 38.91512 | -8.99942 | 7747 ft | 271 kts | 42° |
| 2026-05-05 14:41 | 38.92841 | -8.98205 | 8568 ft | 277 kts | 41° |
| 2026-05-05 14:41 | 38.94217 | -8.96452 | 9473 ft | 280 kts | 40° |
| 2026-05-05 14:41 | 38.95622 | -8.94696 | 10300 ft | 286 kts | 40° |
| 2026-05-05 14:41 | 38.97096 | -8.92841 | 10681 ft | 307 kts | 40° |
| 2026-05-05 14:42 | 38.98685 | -8.90848 | 10936 ft | 331 kts | 40° |
| 2026-05-05 14:42 | 39.00334 | -8.88777 | 11545 ft | 339 kts | 40° |
| 2026-05-05 14:42 | 39.02033 | -8.86636 | 12291 ft | 345 kts | 40° |
| 2026-05-05 14:42 | 39.03761 | -8.84459 | 13025 ft | 350 kts | 40° |
| 2026-05-05 14:43 | 39.05528 | -8.82238 | 13773 ft | 355 kts | 40° |
| 2026-05-05 14:43 | 39.07311 | -8.79999 | 14437 ft | 360 kts | 40° |
| 2026-05-05 14:43 | 39.09087 | -8.77767 | 15097 ft | 364 kts | 40° |
| 2026-05-05 14:43 | 39.10914 | -8.75469 | 15759 ft | 368 kts | 40° |
| 2026-05-05 14:44 | 39.12758 | -8.73153 | 16391 ft | 372 kts | 40° |
| 2026-05-05 14:44 | 39.14622 | -8.70807 | 17079 ft | 376 kts | 40° |
| 2026-05-05 14:44 | 39.16495 | -8.68439 | 17753 ft | 380 kts | 40° |
| 2026-05-05 14:44 | 39.18394 | -8.66041 | 18373 ft | 384 kts | 40° |
| 2026-05-05 14:45 | 39.20317 | -8.63612 | 18905 ft | 388 kts | 40° |
| 2026-05-05 14:45 | 39.22233 | -8.61190 | 19430 ft | 393 kts | 39° |
| 2026-05-05 14:45 | 39.24197 | -8.58708 | 19979 ft | 397 kts | 40° |
| 2026-05-05 14:45 | 39.26178 | -8.56201 | 20520 ft | 401 kts | 40° |
| 2026-05-05 14:46 | 39.28180 | -8.53664 | 21073 ft | 405 kts | 39° |
| 2026-05-05 14:46 | 39.30201 | -8.51103 | 21584 ft | 409 kts | 39° |
| 2026-05-05 14:46 | 39.32248 | -8.48508 | 22074 ft | 414 kts | 39° |
| 2026-05-05 14:46 | 39.34314 | -8.45886 | 22586 ft | 418 kts | 39° |
| 2026-05-05 14:47 | 39.36407 | -8.43226 | 23078 ft | 423 kts | 39° |
| 2026-05-05 14:47 | 39.38516 | -8.40544 | 23583 ft | 427 kts | 39° |
| 2026-05-05 14:47 | 39.40646 | -8.37833 | 24007 ft | 431 kts | 40° |
| 2026-05-05 14:47 | 39.42786 | -8.35105 | 24443 ft | 434 kts | 40° |
| 2026-05-05 14:48 | 39.44944 | -8.32352 | 24819 ft | 439 kts | 39° |
| 2026-05-05 14:48 | 39.47131 | -8.29562 | 25227 ft | 442 kts | 39° |
| 2026-05-05 14:48 | 39.49296 | -8.26795 | 25659 ft | 444 kts | 39° |
| 2026-05-05 14:48 | 39.51504 | -8.23972 | 26074 ft | 447 kts | 39° |
| 2026-05-05 14:49 | 39.53730 | -8.21122 | 26499 ft | 449 kts | 39° |
| 2026-05-05 14:49 | 39.55963 | -8.18260 | 26880 ft | 452 kts | 39° |
| 2026-05-05 14:49 | 39.58203 | -8.15388 | 27241 ft | 456 kts | 39° |
| 2026-05-05 14:49 | 39.60464 | -8.12487 | 27607 ft | 458 kts | 40° |
| 2026-05-05 14:50 | 39.62712 | -8.09598 | 27985 ft | 461 kts | 40° |
| 2026-05-05 14:50 | 39.64997 | -8.06660 | 28334 ft | 463 kts | 40° |
| 2026-05-05 14:50 | 39.67293 | -8.03705 | 28655 ft | 466 kts | 40° |
| 2026-05-05 14:50 | 39.69603 | -8.00727 | 28993 ft | 469 kts | 40° |
| 2026-05-05 14:51 | 39.71929 | -7.97727 | 29319 ft | 471 kts | 40° |
| 2026-05-05 14:51 | 39.74262 | -7.94715 | 29619 ft | 474 kts | 40° |
| 2026-05-05 14:51 | 39.76609 | -7.91681 | 29960 ft | 476 kts | 40° |
| 2026-05-05 14:51 | 39.78959 | -7.88639 | 30285 ft | 478 kts | 40° |
| 2026-05-05 14:52 | 39.81270 | -7.85645 | 30520 ft | 481 kts | 40° |
| 2026-05-05 14:52 | 39.83686 | -7.82514 | 30802 ft | 483 kts | 40° |
| 2026-05-05 14:52 | 39.86038 | -7.79461 | 31082 ft | 485 kts | 40° |
| 2026-05-05 14:52 | 39.88431 | -7.76352 | 31398 ft | 486 kts | 40° |
| 2026-05-05 14:53 | 39.90821 | -7.73240 | 31751 ft | 486 kts | 40° |
| 2026-05-05 14:53 | 39.93212 | -7.70126 | 32092 ft | 486 kts | 40° |
| 2026-05-05 14:53 | 39.95607 | -7.67004 | 32449 ft | 485 kts | 40° |
| 2026-05-05 14:53 | 39.97995 | -7.63887 | 32783 ft | 485 kts | 40° |
| 2026-05-05 14:54 | 40.00381 | -7.60769 | 33133 ft | 485 kts | 40° |
| 2026-05-05 14:54 | 40.02749 | -7.57668 | 33744 ft | 478 kts | 39° |
| 2026-05-05 14:54 | 40.05089 | -7.54601 | 34203 ft | 475 kts | 39° |
| 2026-05-05 14:54 | 40.07421 | -7.51546 | 34453 ft | 475 kts | 39° |
| 2026-05-05 14:55 | 40.09729 | -7.48523 | 34661 ft | 475 kts | 40° |
| 2026-05-05 14:55 | 40.12062 | -7.45462 | 34879 ft | 476 kts | 40° |
| 2026-05-05 14:55 | 40.14394 | -7.42397 | 35119 ft | 475 kts | 40° |
| 2026-05-05 14:55 | 40.16727 | -7.39328 | 35358 ft | 475 kts | 40° |
| 2026-05-05 14:56 | 40.19053 | -7.36265 | 35577 ft | 475 kts | 40° |
| 2026-05-05 14:56 | 40.21384 | -7.33192 | 35784 ft | 475 kts | 40° |
| 2026-05-05 14:56 | 40.23717 | -7.30113 | 36003 ft | 475 kts | 40° |
| 2026-05-05 14:56 | 40.25257 | -7.28078 | 36175 ft | 475 kts | 40° |
| 2026-05-05 14:57 | 40.27578 | -7.25007 | 36441 ft | 473 kts | 40° |
| 2026-05-05 14:57 | 40.30649 | -7.20943 | 36700 ft | 474 kts | 40° |
| 2026-05-05 14:57 | 40.32969 | -7.17868 | 36829 ft | 475 kts | 40° |
| 2026-05-05 14:57 | 40.34544 | -7.15780 | 36966 ft | 475 kts | 40° |
| 2026-05-05 14:58 | 40.36863 | -7.12701 | 37171 ft | 474 kts | 40° |
| 2026-05-05 14:58 | 40.39182 | -7.09618 | 37350 ft | 474 kts | 40° |
| 2026-05-05 14:58 | 40.41483 | -7.06557 | 37514 ft | 474 kts | 40° |
| 2026-05-05 14:58 | 40.43799 | -7.03473 | 37695 ft | 474 kts | 40° |
| 2026-05-05 14:59 | 40.46117 | -7.00383 | 37864 ft | 474 kts | 40° |
| 2026-05-05 14:59 | 40.48430 | -6.97295 | 37996 ft | 474 kts | 40° |
| 2026-05-05 14:59 | 40.53053 | -6.91115 | 37993 ft | 473 kts | 40° |
| 2026-05-05 15:00 | 40.56887 | -6.85982 | 37995 ft | 473 kts | 40° |
| 2026-05-05 15:00 | 40.62260 | -6.78773 | 37993 ft | 475 kts | 40° |
| 2026-05-05 15:01 | 40.66894 | -6.72539 | 37991 ft | 474 kts | 40° |
| 2026-05-05 15:01 | 40.71488 | -6.66346 | 37984 ft | 473 kts | 40° |
| 2026-05-05 15:02 | 40.76094 | -6.60124 | 37976 ft | 473 kts | 40° |
| 2026-05-05 15:02 | 40.80682 | -6.53913 | 37971 ft | 472 kts | 40° |
| 2026-05-05 15:03 | 40.85255 | -6.47710 | 37970 ft | 471 kts | 40° |
| 2026-05-05 15:03 | 40.89836 | -6.41486 | 37971 ft | 471 kts | 41° |
| 2026-05-05 15:04 | 40.94366 | -6.35319 | 37969 ft | 471 kts | 41° |
| 2026-05-05 15:04 | 40.98939 | -6.29084 | 37975 ft | 470 kts | 41° |
| 2026-05-05 15:05 | 41.06134 | -6.20349 | 37966 ft | 466 kts | 36° |
| 2026-05-05 15:06 | 41.10970 | -6.14684 | 37963 ft | 467 kts | 37° |
| 2026-05-05 15:06 | 41.15803 | -6.08924 | 37967 ft | 467 kts | 37° |
| 2026-05-05 15:07 | 41.20661 | -6.03104 | 37990 ft | 472 kts | 37° |
| 2026-05-05 15:07 | 41.25523 | -5.97260 | 37988 ft | 470 kts | 38° |
| 2026-05-05 15:08 | 41.30382 | -5.91408 | 37984 ft | 471 kts | 38° |
| 2026-05-05 15:08 | 41.35239 | -5.85547 | 37987 ft | 471 kts | 38° |
| 2026-05-05 15:09 | 41.40061 | -5.79716 | 37986 ft | 471 kts | 38° |
| 2026-05-05 15:09 | 41.44903 | -5.73851 | 37990 ft | 470 kts | 38° |
| 2026-05-05 15:10 | 41.49770 | -5.68022 | 37981 ft | 468 kts | 34° |
| 2026-05-05 15:10 | 41.55116 | -5.63166 | 37988 ft | 461 kts | 24° |
| 2026-05-05 15:11 | 41.60894 | -5.59584 | 37966 ft | 457 kts | 18° |
| 2026-05-05 15:11 | 41.66759 | -5.56264 | 37976 ft | 457 kts | 19° |
| 2026-05-05 15:12 | 41.72585 | -5.52957 | 37973 ft | 457 kts | 19° |
| 2026-05-05 15:12 | 41.78452 | -5.49632 | 37978 ft | 457 kts | 18° |
| 2026-05-05 15:13 | 41.84306 | -5.46311 | 37975 ft | 457 kts | 19° |
| 2026-05-05 15:13 | 41.90170 | -5.42979 | 37981 ft | 458 kts | 19° |
| 2026-05-05 15:14 | 41.96037 | -5.39637 | 37979 ft | 458 kts | 19° |
| 2026-05-05 15:14 | 42.01880 | -5.36302 | 37980 ft | 458 kts | 19° |
| 2026-05-05 15:15 | 42.07748 | -5.32946 | 38011 ft | 458 kts | 19° |
| 2026-05-05 15:15 | 42.13630 | -5.29577 | 37977 ft | 459 kts | 19° |
| 2026-05-05 15:16 | 42.19500 | -5.26206 | 37979 ft | 460 kts | 19° |
| 2026-05-05 15:16 | 42.25400 | -5.22811 | 37980 ft | 461 kts | 19° |
| 2026-05-05 15:17 | 42.31262 | -5.19432 | 37988 ft | 461 kts | 19° |
| 2026-05-05 15:17 | 42.37177 | -5.16014 | 37988 ft | 462 kts | 19° |
| 2026-05-05 15:18 | 42.43094 | -5.12588 | 37989 ft | 462 kts | 19° |
| 2026-05-05 15:18 | 42.49007 | -5.09157 | 37993 ft | 462 kts | 19° |
| 2026-05-05 15:19 | 42.54867 | -5.05750 | 37978 ft | 459 kts | 20° |
| 2026-05-05 15:19 | 42.60744 | -5.02327 | 37985 ft | 460 kts | 20° |
| 2026-05-05 15:20 | 42.66628 | -4.98894 | 37980 ft | 460 kts | 20° |
| 2026-05-05 15:20 | 42.72509 | -4.95452 | 37984 ft | 460 kts | 20° |
| 2026-05-05 15:21 | 42.78413 | -4.91991 | 38002 ft | 463 kts | 20° |
| 2026-05-05 15:21 | 42.84305 | -4.88528 | 37981 ft | 462 kts | 20° |
| 2026-05-05 15:22 | 42.90203 | -4.85055 | 37978 ft | 462 kts | 20° |
| 2026-05-05 15:22 | 42.96111 | -4.81570 | 37993 ft | 462 kts | 20° |
| 2026-05-05 15:23 | 43.02015 | -4.78080 | 37999 ft | 462 kts | 20° |
| 2026-05-05 15:23 | 43.07913 | -4.74585 | 37998 ft | 462 kts | 20° |
| 2026-05-05 15:24 | 43.13786 | -4.71099 | 38019 ft | 462 kts | 20° |
| 2026-05-05 15:24 | 43.19668 | -4.67599 | 38012 ft | 460 kts | 20° |
| 2026-05-05 15:25 | 43.25544 | -4.64096 | 38008 ft | 461 kts | 20° |
| 2026-05-05 15:25 | 43.31425 | -4.60580 | 38015 ft | 461 kts | 20° |
| 2026-05-05 15:26 | 43.37301 | -4.57063 | 38015 ft | 459 kts | 21° |
| 2026-05-05 15:26 | 43.43193 | -4.53530 | 38021 ft | 463 kts | 21° |
| 2026-05-05 15:27 | 43.49061 | -4.50001 | 38011 ft | 461 kts | 21° |
| 2026-05-05 15:27 | 43.54954 | -4.46449 | 38032 ft | 461 kts | 21° |
| 2026-05-05 15:28 | 43.60846 | -4.42891 | 38016 ft | 461 kts | 21° |
| 2026-05-05 15:28 | 43.66687 | -4.39357 | 38013 ft | 461 kts | 21° |
| 2026-05-05 15:29 | 43.72571 | -4.35788 | 38001 ft | 461 kts | 21° |
| 2026-05-05 15:29 | 43.78461 | -4.32211 | 38003 ft | 461 kts | 21° |
| 2026-05-05 15:30 | 43.84300 | -4.28654 | 38001 ft | 461 kts | 21° |
| 2026-05-05 15:30 | 43.90176 | -4.25066 | 37996 ft | 461 kts | 21° |
| 2026-05-05 15:31 | 43.96046 | -4.21476 | 37998 ft | 461 kts | 21° |
| 2026-05-05 15:31 | 44.01913 | -4.17880 | 37992 ft | 461 kts | 22° |
| 2026-05-05 15:32 | 44.07742 | -4.14298 | 37991 ft | 460 kts | 22° |
| 2026-05-05 15:32 | 44.13616 | -4.10682 | 37983 ft | 460 kts | 22° |
| 2026-05-05 15:33 | 44.19473 | -4.07069 | 37984 ft | 460 kts | 22° |
| 2026-05-05 15:33 | 44.25335 | -4.03444 | 37979 ft | 460 kts | 22° |
| 2026-05-05 15:34 | 44.31178 | -3.99822 | 37979 ft | 459 kts | 22° |
| 2026-05-05 15:34 | 44.36795 | -3.95649 | 37977 ft | 460 kts | 28° |
| 2026-05-05 15:35 | 44.42388 | -3.91232 | 37975 ft | 460 kts | 28° |
| 2026-05-05 15:35 | 44.47968 | -3.86827 | 37971 ft | 460 kts | 28° |
| 2026-05-05 15:36 | 44.53508 | -3.82430 | 37971 ft | 460 kts | 28° |
| 2026-05-05 15:36 | 44.59076 | -3.77997 | 37963 ft | 460 kts | 28° |
| 2026-05-05 15:37 | 44.64644 | -3.73553 | 37960 ft | 460 kts | 28° |
| 2026-05-05 15:37 | 44.70215 | -3.69097 | 37959 ft | 460 kts | 28° |
| 2026-05-05 15:38 | 44.75787 | -3.64631 | 37955 ft | 460 kts | 28° |
| 2026-05-05 15:38 | 44.81319 | -3.60187 | 37958 ft | 461 kts | 28° |
| 2026-05-05 15:39 | 44.86888 | -3.55703 | 37961 ft | 461 kts | 28° |
| 2026-05-05 15:39 | 44.92459 | -3.51207 | 37965 ft | 461 kts | 28° |
| 2026-05-05 15:40 | 44.98028 | -3.46704 | 37958 ft | 461 kts | 28° |
| 2026-05-05 15:40 | 45.03594 | -3.42192 | 37956 ft | 463 kts | 28° |
| 2026-05-05 15:41 | 45.09198 | -3.37639 | 37956 ft | 463 kts | 28° |
| 2026-05-05 15:41 | 45.14792 | -3.33083 | 37956 ft | 463 kts | 29° |
| 2026-05-05 15:42 | 45.20375 | -3.28524 | 37950 ft | 462 kts | 28° |
| 2026-05-05 15:42 | 45.25937 | -3.23974 | 37950 ft | 463 kts | 28° |
| 2026-05-05 15:43 | 45.31521 | -3.19395 | 37944 ft | 462 kts | 28° |
| 2026-05-05 15:43 | 45.36149 | -3.15593 | 37943 ft | 460 kts | 29° |
| 2026-05-05 15:44 | 45.42584 | -3.10293 | 37940 ft | 460 kts | 29° |
| 2026-05-05 15:44 | 45.48155 | -3.05694 | 37939 ft | 465 kts | 29° |
| 2026-05-05 15:45 | 45.52828 | -3.01828 | 37937 ft | 465 kts | 29° |
| 2026-05-05 15:45 | 45.58407 | -2.97203 | 37940 ft | 461 kts | 29° |
| 2026-05-05 15:46 | 45.63965 | -2.92583 | 37932 ft | 462 kts | 29° |
| 2026-05-05 15:46 | 45.69487 | -2.87983 | 37930 ft | 462 kts | 30° |
| 2026-05-05 15:47 | 45.75054 | -2.83336 | 37935 ft | 461 kts | 30° |
| 2026-05-05 15:47 | 45.80581 | -2.78711 | 37925 ft | 460 kts | 30° |
| 2026-05-05 15:48 | 45.86118 | -2.74066 | 37924 ft | 462 kts | 30° |
| 2026-05-05 15:48 | 45.91691 | -2.69381 | 37928 ft | 463 kts | 30° |
| 2026-05-05 15:49 | 45.97216 | -2.64724 | 37918 ft | 462 kts | 30° |
| 2026-05-05 15:49 | 46.02768 | -2.60035 | 37916 ft | 462 kts | 30° |
| 2026-05-05 15:50 | 46.08324 | -2.55330 | 37917 ft | 462 kts | 30° |
| 2026-05-05 15:50 | 46.13875 | -2.50620 | 37909 ft | 462 kts | 30° |
| 2026-05-05 15:51 | 46.19358 | -2.45957 | 37912 ft | 459 kts | 30° |
| 2026-05-05 15:51 | 46.24851 | -2.41238 | 37909 ft | 459 kts | 31° |
| 2026-05-05 15:52 | 46.30337 | -2.36517 | 37906 ft | 462 kts | 31° |
| 2026-05-05 15:52 | 46.35874 | -2.31745 | 37906 ft | 463 kts | 31° |
| 2026-05-05 15:53 | 46.41386 | -2.26983 | 37903 ft | 461 kts | 31° |
| 2026-05-05 15:53 | 46.46866 | -2.22238 | 37895 ft | 462 kts | 31° |
| 2026-05-05 15:54 | 46.52390 | -2.17443 | 37896 ft | 462 kts | 31° |
| 2026-05-05 15:54 | 46.57792 | -2.12440 | 37901 ft | 459 kts | 41° |
| 2026-05-05 15:54 | 46.60015 | -2.09134 | 37896 ft | 458 kts | 53° |
| 2026-05-05 15:55 | 46.61973 | -2.05455 | 37893 ft | 459 kts | 53° |
| 2026-05-05 15:55 | 46.65881 | -1.98095 | 37895 ft | 460 kts | 53° |
| 2026-05-05 15:56 | 46.69745 | -1.90804 | 37889 ft | 460 kts | 53° |
| 2026-05-05 15:56 | 46.73651 | -1.83408 | 37888 ft | 461 kts | 53° |
| 2026-05-05 15:57 | 46.77561 | -1.75980 | 37881 ft | 461 kts | 53° |
| 2026-05-05 15:57 | 46.81460 | -1.68553 | 37883 ft | 461 kts | 53° |
| 2026-05-05 15:58 | 46.85362 | -1.61099 | 37880 ft | 462 kts | 53° |
| 2026-05-05 15:58 | 46.89281 | -1.53594 | 37880 ft | 464 kts | 53° |
| 2026-05-05 15:59 | 46.93154 | -1.46157 | 37878 ft | 462 kts | 53° |
| 2026-05-05 15:59 | 46.97045 | -1.38666 | 37875 ft | 462 kts | 53° |
| 2026-05-05 16:00 | 47.00922 | -1.31179 | 37875 ft | 460 kts | 53° |
| 2026-05-05 16:00 | 47.04799 | -1.23674 | 37870 ft | 461 kts | 54° |
| 2026-05-05 16:01 | 47.08680 | -1.16140 | 37868 ft | 463 kts | 54° |
| 2026-05-05 16:01 | 47.12530 | -1.08642 | 37864 ft | 462 kts | 54° |
| 2026-05-05 16:02 | 47.16399 | -1.01090 | 37864 ft | 462 kts | 54° |
| 2026-05-05 16:02 | 47.20248 | -0.93560 | 37858 ft | 457 kts | 54° |
| 2026-05-05 16:03 | 47.24067 | -0.86065 | 37859 ft | 458 kts | 54° |
| 2026-05-05 16:03 | 47.27899 | -0.78523 | 37856 ft | 461 kts | 54° |
| 2026-05-05 16:04 | 47.31711 | -0.71001 | 37858 ft | 462 kts | 54° |
| 2026-05-05 16:04 | 47.35548 | -0.63412 | 37856 ft | 462 kts | 54° |
| 2026-05-05 16:05 | 47.39381 | -0.55804 | 37581 ft | 462 kts | 54° |
| 2026-05-05 16:05 | 47.41294 | -0.51999 | 36982 ft | 463 kts | 54° |
| 2026-05-05 16:05 | 47.43216 | -0.48172 | 36321 ft | 463 kts | 55° |
| 2026-05-05 16:05 | 47.45130 | -0.44358 | 35658 ft | 460 kts | 55° |
| 2026-05-05 16:06 | 47.47031 | -0.40564 | 34976 ft | 458 kts | 55° |
| 2026-05-05 16:06 | 47.48918 | -0.36791 | 34303 ft | 456 kts | 55° |
| 2026-05-05 16:06 | 47.50800 | -0.33025 | 33621 ft | 453 kts | 56° |
| 2026-05-05 16:06 | 47.52666 | -0.29284 | 32859 ft | 450 kts | 56° |
| 2026-05-05 16:07 | 47.54510 | -0.25581 | 32149 ft | 446 kts | 56° |
| 2026-05-05 16:07 | 47.56344 | -0.21892 | 31442 ft | 442 kts | 56° |
| 2026-05-05 16:07 | 47.58131 | -0.18296 | 30872 ft | 436 kts | 56° |
| 2026-05-05 16:07 | 47.59917 | -0.14697 | 30315 ft | 429 kts | 56° |
| 2026-05-05 16:08 | 47.61664 | -0.11169 | 29755 ft | 422 kts | 55° |
| 2026-05-05 16:08 | 47.63392 | -0.07678 | 29208 ft | 415 kts | 55° |
| 2026-05-05 16:08 | 47.65081 | -0.04258 | 28687 ft | 408 kts | 55° |
| 2026-05-05 16:08 | 47.66751 | -0.00874 | 28178 ft | 402 kts | 55° |
| 2026-05-05 16:09 | 47.68395 | 0.02459 | 27658 ft | 397 kts | 55° |
| 2026-05-05 16:09 | 47.70014 | 0.05749 | 27153 ft | 392 kts | 55° |
| 2026-05-05 16:09 | 47.71609 | 0.08994 | 26664 ft | 386 kts | 55° |
| 2026-05-05 16:09 | 47.73187 | 0.12207 | 26190 ft | 382 kts | 55° |
| 2026-05-05 16:10 | 47.74740 | 0.15373 | 25701 ft | 377 kts | 55° |
| 2026-05-05 16:10 | 47.76290 | 0.18537 | 25229 ft | 395 kts | 55° |
| 2026-05-05 16:10 | 47.77947 | 0.21930 | 24692 ft | 411 kts | 55° |
| 2026-05-05 16:10 | 47.79696 | 0.25330 | 24165 ft | 416 kts | 50° |
| 2026-05-05 16:11 | 47.81746 | 0.28370 | 23688 ft | 413 kts | 41° |
| 2026-05-05 16:11 | 47.88480 | 0.35590 | 22790 ft | 390 kts | 38° |
| 2026-05-05 16:12 | 47.90507 | 0.38274 | 22525 ft | 392 kts | 45° |
| 2026-05-05 16:12 | 47.94428 | 0.43912 | 22096 ft | 390 kts | 45° |
| 2026-05-05 16:13 | 48.00324 | 0.52462 | 22066 ft | 395 kts | 45° |
| 2026-05-05 16:13 | 48.02289 | 0.55323 | 22056 ft | 391 kts | 45° |
| 2026-05-05 16:13 | 48.04224 | 0.58146 | 22052 ft | 390 kts | 45° |
| 2026-05-05 16:14 | 48.08099 | 0.63807 | 22050 ft | 392 kts | 45° |
| 2026-05-05 16:14 | 48.11985 | 0.69495 | 22036 ft | 390 kts | 45° |
| 2026-05-05 16:15 | 48.15867 | 0.75190 | 22039 ft | 391 kts | 45° |
| 2026-05-05 16:15 | 48.19762 | 0.80918 | 22039 ft | 391 kts | 45° |
| 2026-05-05 16:16 | 48.23644 | 0.86637 | 22026 ft | 388 kts | 45° |
| 2026-05-05 16:16 | 48.27502 | 0.92335 | 22030 ft | 391 kts | 45° |
| 2026-05-05 16:17 | 48.31389 | 0.98090 | 22042 ft | 391 kts | 45° |
| 2026-05-05 16:17 | 48.33326 | 1.00964 | 22046 ft | 392 kts | 45° |
| 2026-05-05 16:18 | 48.37194 | 1.06712 | 21799 ft | 391 kts | 46° |
| 2026-05-05 16:18 | 48.39135 | 1.09598 | 21277 ft | 393 kts | 45° |
| 2026-05-05 16:18 | 48.42999 | 1.15356 | 20160 ft | 387 kts | 46° |
| 2026-05-05 16:19 | 48.44878 | 1.18159 | 19633 ft | 382 kts | 45° |
| 2026-05-05 16:19 | 48.46756 | 1.20965 | 19051 ft | 379 kts | 46° |
| 2026-05-05 16:19 | 48.50460 | 1.26509 | 17989 ft | 372 kts | 46° |
| 2026-05-05 16:20 | 48.54092 | 1.31959 | 16899 ft | 363 kts | 46° |
| 2026-05-05 16:20 | 48.57638 | 1.37293 | 15857 ft | 355 kts | 46° |
| 2026-05-05 16:21 | 48.61103 | 1.42512 | 14813 ft | 348 kts | 46° |
| 2026-05-05 16:22 | 48.66181 | 1.50181 | 13257 ft | 340 kts | 45° |
| 2026-05-05 16:22 | 48.69481 | 1.55179 | 12282 ft | 331 kts | 46° |
| 2026-05-05 16:23 | 48.72677 | 1.60026 | 11322 ft | 324 kts | 46° |
| 2026-05-05 16:23 | 48.74256 | 1.62429 | 10861 ft | 320 kts | 47° |
| 2026-05-05 16:23 | 48.76957 | 1.67693 | 10100 ft | 309 kts | 55° |
| 2026-05-05 16:24 | 48.78188 | 1.70274 | 9988 ft | 296 kts | 55° |
| 2026-05-05 16:24 | 48.79376 | 1.72758 | 9780 ft | 286 kts | 54° |
| 2026-05-05 16:24 | 48.81676 | 1.77576 | 9385 ft | 283 kts | 53° |
| 2026-05-05 16:25 | 48.82831 | 1.79994 | 9006 ft | 283 kts | 54° |
| 2026-05-05 16:25 | 48.85107 | 1.84811 | 8257 ft | 277 kts | 54° |
| 2026-05-05 16:25 | 48.86229 | 1.87177 | 7897 ft | 274 kts | 54° |
| 2026-05-05 16:26 | 48.88409 | 1.91825 | 7157 ft | 270 kts | 54° |
| 2026-05-05 16:26 | 48.90585 | 1.96427 | 6437 ft | 266 kts | 53° |
| 2026-05-05 16:27 | 48.91673 | 1.98699 | 6054 ft | 264 kts | 53° |
| 2026-05-05 16:27 | 48.92742 | 2.00947 | 5756 ft | 259 kts | 53° |
| 2026-05-05 16:27 | 48.93759 | 2.03104 | 5610 ft | 242 kts | 54° |
| 2026-05-05 16:27 | 48.94700 | 2.05118 | 5463 ft | 225 kts | 53° |
| 2026-05-05 16:28 | 48.95583 | 2.06994 | 5335 ft | 210 kts | 53° |
| 2026-05-05 16:28 | 48.96402 | 2.08730 | 5213 ft | 195 kts | 53° |
| 2026-05-05 16:28 | 48.96910 | 2.09810 | 5153 ft | 182 kts | 53° |
| 2026-05-05 16:28 | 48.97615 | 2.11305 | 5018 ft | 168 kts | 52° |
| 2026-05-05 16:29 | 48.98525 | 2.13215 | 4505 ft | 168 kts | 52° |
| 2026-05-05 16:29 | 48.99193 | 2.14652 | 4228 ft | 162 kts | 52° |
| 2026-05-05 16:29 | 48.99634 | 2.15593 | 4058 ft | 159 kts | 53° |
| 2026-05-05 16:29 | 49.00204 | 2.16936 | 3970 ft | 147 kts | 60° |
| 2026-05-05 16:30 | 49.00569 | 2.18530 | 3921 ft | 172 kts | 73° |
| 2026-05-05 16:30 | 49.00747 | 2.20325 | 3850 ft | 170 kts | 81° |
| 2026-05-05 16:30 | 49.00835 | 2.22114 | 3779 ft | 171 kts | 82° |
| 2026-05-05 16:30 | 49.00932 | 2.23930 | 3702 ft | 173 kts | 81° |
| 2026-05-05 16:31 | 49.01037 | 2.25758 | 3614 ft | 172 kts | 81° |
| 2026-05-05 16:31 | 49.01136 | 2.27573 | 3539 ft | 171 kts | 82° |
| 2026-05-05 16:31 | 49.01227 | 2.29367 | 3368 ft | 168 kts | 83° |
| 2026-05-05 16:31 | 49.01332 | 2.31111 | 3175 ft | 163 kts | 81° |
| 2026-05-05 16:32 | 49.01412 | 2.32804 | 2972 ft | 157 kts | 82° |
| 2026-05-05 16:32 | 49.01494 | 2.34398 | 2770 ft | 145 kts | 81° |
| 2026-05-05 16:32 | 49.01574 | 2.35861 | 2594 ft | 131 kts | 81° |
| 2026-05-05 16:32 | 49.01649 | 2.37221 | 2425 ft | 133 kts | 80° |
| 2026-05-05 16:33 | 49.01724 | 2.38621 | 2252 ft | 132 kts | 80° |
| 2026-05-05 16:33 | 49.01798 | 2.39997 | 2066 ft | 130 kts | 79° |
| 2026-05-05 16:33 | 49.01873 | 2.41382 | 1891 ft | 131 kts | 79° |
| 2026-05-05 16:33 | 49.01947 | 2.42772 | 1723 ft | 132 kts | 79° |
| 2026-05-05 16:34 | 49.02023 | 2.44163 | 1537 ft | 131 kts | 78° |
| 2026-05-05 16:34 | 49.02097 | 2.45548 | 1354 ft | 131 kts | 79° |
| 2026-05-05 16:34 | 49.02174 | 2.46959 | 1145 ft | 136 kts | 79° |
| 2026-05-05 16:34 | 49.02249 | 2.48387 | 964 ft | 133 kts | 81° |
| 2026-05-05 16:35 | 49.02312 | 2.49802 | 768 ft | 136 kts | 77° |
| 2026-05-05 16:35 | 49.02393 | 2.51220 | 589 ft | 134 kts | 77° |
| 2026-05-05 16:35 | 49.02468 | 2.52565 | 402 ft | 122 kts | 78° |
| 2026-05-05 16:35 | 49.02537 | 2.53779 | 364 ft | 100 kts | 82° |
| 2026-05-05 16:36 | 49.02564 | 2.54467 | 354 ft | 39 kts | 113° |
| 2026-05-05 16:36 | 49.02506 | 2.54802 | 362 ft | 30 kts | 104° |
| 2026-05-05 16:36 | 49.02480 | 2.54960 | 354 ft | 0 kts | 108° |
| 2026-05-05 16:37 | 49.02466 | 2.55021 | 354 ft | 16 kts | 108° |
| 2026-05-05 16:37 | 49.02443 | 2.55190 | 358 ft | 16 kts | 81° |
| 2026-05-05 16:37 | 49.02454 | 2.55350 | 358 ft | 14 kts | 86° |
| 2026-05-05 16:38 | 49.02461 | 2.55491 | 358 ft | 13 kts | 85° |
| 2026-05-05 16:38 | 49.02429 | 2.55599 | 357 ft | 11 kts | 144° |
| 2026-05-05 16:38 | 49.02354 | 2.55619 | 355 ft | 17 kts | 176° |
| 2026-05-05 16:38 | 49.02125 | 2.55649 | 354 ft | 23 kts | 173° |
| 2026-05-05 16:39 | 49.02074 | 2.55778 | 355 ft | 15 kts | 58° |
| 2026-05-05 16:39 | 49.02091 | 2.55975 | 361 ft | 38 kts | 86° |
| 2026-05-05 16:39 | 49.02044 | 2.56357 | 360 ft | 37 kts | 115° |
| 2026-05-05 16:39 | 49.02046 | 2.56822 | 361 ft | 65 kts | 85° |
| 2026-05-05 16:40 | 49.02080 | 2.57481 | 360 ft | 59 kts | 85° |
| 2026-05-05 16:40 | 49.01994 | 2.58023 | 363 ft | 51 kts | 139° |
| 2026-05-05 16:40 | 49.01648 | 2.58144 | 356 ft | 70 kts | 175° |
| 2026-05-05 16:40 | 49.01194 | 2.58206 | 354 ft | 44 kts | 175° |
| 2026-05-05 16:41 | 49.00951 | 2.58237 | 354 ft | 34 kts | 173° |
| 2026-05-05 16:41 | 49.00749 | 2.58288 | 360 ft | 6 kts | 146° |
| 2026-05-05 16:41 | 49.00744 | 2.58345 | 359 ft | 7 kts | 75° |
| 2026-05-05 16:41 | 49.00744 | 2.58348 | 357 ft | 0 kts | 76° |